Map

Track Data

SID SEASON NUMBER BASIN SUBBASIN NAME ISO_TIME NATURE LAT LON WMO_WIND WMO_PRES WMO_AGENCY TRACK_TYPE DIST2LAND LANDFALL IFLAG USA_AGENCY USA_ATCF_ID USA_LAT USA_LON USA_RECORD USA_STATUS USA_WIND USA_PRES USA_SSHS USA_R34_NE USA_R34_SE USA_R34_SW USA_R34_NW USA_R50_NE USA_R50_SE USA_R50_SW USA_R50_NW USA_R64_NE USA_R64_SE USA_R64_SW USA_R64_NW USA_POCI USA_ROCI USA_RMW USA_EYE TOKYO_LAT TOKYO_LON TOKYO_GRADE TOKYO_WIND TOKYO_PRES TOKYO_R50_DIR TOKYO_R50_LONG TOKYO_R50_SHORT TOKYO_R30_DIR TOKYO_R30_LONG TOKYO_R30_SHORT TOKYO_LAND CMA_LAT CMA_LON CMA_CAT CMA_WIND CMA_PRES HKO_LAT HKO_LON HKO_CAT HKO_WIND HKO_PRES NEWDELHI_LAT NEWDELHI_LON NEWDELHI_GRADE NEWDELHI_WIND NEWDELHI_PRES NEWDELHI_CI NEWDELHI_DP NEWDELHI_POCI REUNION_LAT REUNION_LON REUNION_TYPE REUNION_WIND REUNION_PRES REUNION_TNUM REUNION_CI REUNION_RMW REUNION_R34_NE REUNION_R34_SE REUNION_R34_SW REUNION_R34_NW REUNION_R50_NE REUNION_R50_SE REUNION_R50_SW REUNION_R50_NW REUNION_R64_NE REUNION_R64_SE REUNION_R64_SW REUNION_R64_NW BOM_LAT BOM_LON BOM_TYPE BOM_WIND BOM_PRES BOM_TNUM BOM_CI BOM_RMW BOM_R34_NE BOM_R34_SE BOM_R34_SW BOM_R34_NW BOM_R50_NE BOM_R50_SE BOM_R50_SW BOM_R50_NW BOM_R64_NE BOM_R64_SE BOM_R64_SW BOM_R64_NW BOM_ROCI BOM_POCI BOM_EYE BOM_POS_METHOD BOM_PRES_METHOD NADI_LAT NADI_LON NADI_CAT NADI_WIND NADI_PRES WELLINGTON_LAT WELLINGTON_LON WELLINGTON_WIND WELLINGTON_PRES DS824_LAT DS824_LON DS824_STAGE DS824_WIND DS824_PRES TD9636_LAT TD9636_LON TD9636_STAGE TD9636_WIND TD9636_PRES TD9635_LAT TD9635_LON TD9635_WIND TD9635_PRES TD9635_ROCI NEUMANN_LAT NEUMANN_LON NEUMANN_CLASS NEUMANN_WIND NEUMANN_PRES MLC_LAT MLC_LON MLC_CLASS MLC_WIND MLC_PRES USA_GUST BOM_GUST BOM_GUST_PER REUNION_GUST REUNION_GUST_PER USA_SEAHGT USA_SEARAD_NE USA_SEARAD_SE USA_SEARAD_SW USA_SEARAD_NW STORM_SPEED STORM_DIR
1984270N13262 1984 86 EP MM POLO 1984-09-26 00:00:00 TS 12.9000 -97.6000 25 hurdat_epa main 320 320 O_________O___ hurdat_epa EP171984 12.9000 -97.6000 TD 25 -1 12.9000 -97.6000 1 25 6 260
1984270N13262 1984 86 EP MM POLO 1984-09-26 03:00:00 TS 12.8501 -97.8972 main 333 333 P_________P___ EP171984 12.8501 -97.9025 TD 25 -1 12.8502 -97.8813 1 25 6 260
1984270N13262 1984 86 EP MM POLO 1984-09-26 06:00:00 TS 12.8001 -98.1925 25 hurdat_epa main 357 357 O_________P___ hurdat_epa EP171984 12.8000 -98.2000 TD 25 -1 12.8002 -98.1701 1 25 6 260
1984270N13262 1984 86 EP MM POLO 1984-09-26 09:00:00 TS 12.7500 -98.4878 main 377 377 P_________P___ EP171984 12.7499 -98.4925 TD 25 -1 12.7501 -98.4738 1 25 6 260
1984270N13262 1984 86 EP MM POLO 1984-09-26 12:00:00 TS 12.7000 -98.8000 25 hurdat_epa main 384 384 O_________O___ hurdat_epa EP171984 12.7000 -98.8000 TD 25 -1 12.7000 -98.8000 1 25 6 261
1984270N13262 1984 86 EP MM POLO 1984-09-26 15:00:00 TS 12.6499 -99.1344 main 405 405 P_________P___ EP171984 12.6499 -99.1275 TD 25 -1 12.6498 -99.1550 1 25 7 262
1984270N13262 1984 86 EP MM POLO 1984-09-26 18:00:00 TS 12.5999 -99.5100 25 hurdat_epa main 422 422 O_________P___ hurdat_epa EP171984 12.6000 -99.5000 TD 25 -1 12.5997 -99.5400 1 25 8 263
1984270N13262 1984 86 EP MM POLO 1984-09-26 21:00:00 TS 12.5499 -99.9400 main 447 447 P_________P___ EP171984 12.5500 -99.9350 TD 25 -1 12.5497 -99.9550 1 25 9 263
1984270N13262 1984 86 EP MM POLO 1984-09-27 00:00:00 TS 12.5000 -100.400 25 hurdat_epa main 467 467 O_________O___ hurdat_epa EP171984 12.5000 -100.400 TD 25 -1 12.5000 -100.400 1 25 9 263
1984270N13262 1984 86 EP MM POLO 1984-09-27 03:00:00 TS 12.4479 -100.846 main 495 495 P_________P___ EP171984 12.4498 -100.835 TD 25 -1 12.4419 -100.879 1 25 9 263
1984270N13262 1984 86 EP MM POLO 1984-09-27 06:00:00 TS 12.3963 -101.321 25 hurdat_epa main 511 511 O_________P___ hurdat_epa EP171984 12.4000 -101.300 TD 25 -1 12.3851 -101.385 1 25 10 264
1984270N13262 1984 86 EP MM POLO 1984-09-27 09:00:00 TS 12.3464 -101.851 main 546 546 P_________P___ EP171984 12.3500 -101.835 TD 25 -1 12.3357 -101.898 1 25 11 265
1984270N13262 1984 86 EP MM POLO 1984-09-27 12:00:00 TS 12.3000 -102.400 25 hurdat_epa main 571 571 O_________O___ hurdat_epa EP171984 12.3000 -102.400 TD 25 -1 12.3000 -102.400 1 25 11 265
1984270N13262 1984 86 EP MM POLO 1984-09-27 15:00:00 TS 12.2436 -102.956 main 606 606 P_________P___ EP171984 12.2350 -102.980 TD 25 -1 12.2692 -102.885 1 26 10 265
1984270N13262 1984 86 EP MM POLO 1984-09-27 18:00:00 TS 12.2137 -103.463 25 hurdat_epa main 626 626 O_________P___ hurdat_epa EP171984 12.2000 -103.500 TD 25 -1 12.2549 -103.353 1 27 9 270
1984270N13262 1984 86 EP MM POLO 1984-09-27 21:00:00 TS 12.2419 -103.864 main 645 635 P_________P___ EP171984 12.2348 -103.887 TD 27 -1 12.2631 -103.794 1 28 7 277
1984270N13262 1984 86 EP MM POLO 1984-09-28 00:00:00 TS 12.3000 -104.200 30 hurdat_epa main 651 651 O_________O___ hurdat_epa EP171984 12.3000 -104.200 TD 30 -1 12.3000 -104.200 1 30 6 279
1984270N13262 1984 86 EP MM POLO 1984-09-28 03:00:00 TS 12.3409 -104.516 main 668 662 P_________P___ EP171984 12.3349 -104.500 TD 30 -1 12.3587 -104.565 1 30 6 280
1984270N13262 1984 86 EP MM POLO 1984-09-28 06:00:00 TS 12.4118 -104.824 30 hurdat_epa main 669 666 O_________P___ hurdat_epa EP171984 12.4000 -104.800 TD 30 -1 12.4471 -104.895 1 30 7 288
1984270N13262 1984 86 EP MM POLO 1984-09-28 09:00:00 TS 12.5417 -105.158 main 673 659 P_________P___ EP171984 12.5350 -105.142 TD 30 -1 12.5619 -105.203 1 30 7 294
1984270N13262 1984 86 EP MM POLO 1984-09-28 12:00:00 TS 12.7000 -105.500 30 hurdat_epa main 662 655 O_________O___ hurdat_epa EP171984 12.7000 -105.500 TD 30 -1 12.7000 -105.500 1 30 7 294
1984270N13262 1984 86 EP MM POLO 1984-09-28 15:00:00 TS 12.8422 -105.851 main 667 655 P_________P___ EP171984 12.8425 -105.865 TD 35 0 12.8411 -105.807 1 35 7 295
1984270N13262 1984 86 EP MM POLO 1984-09-28 18:00:00 TS 13.0012 -106.177 40 hurdat_epa main 659 649 O_________P___ hurdat_epa EP171984 13.0000 -106.200 TS 40 0 13.0048 -106.108 1 40 7 301
1984270N13262 1984 86 EP MM POLO 1984-09-28 21:00:00 TS 13.1865 -106.444 main 649 645 P_________P___ EP171984 13.1849 -106.458 TS 45 0 13.1911 -106.404 1 45 6 308
1984270N13262 1984 86 EP MM POLO 1984-09-29 00:00:00 TS 13.4000 -106.700 50 hurdat_epa main 646 639 O_________O___ hurdat_epa EP171984 13.4000 -106.700 TS 50 0 13.4000 -106.700 2 50 7 310
1984270N13262 1984 86 EP MM POLO 1984-09-29 03:00:00 TS 13.6369 -106.992 main 645 633 P_________P___ EP171984 13.6425 -106.993 TS 52 0 13.6201 -106.992 2 51 8 310
1984270N13262 1984 86 EP MM POLO 1984-09-29 06:00:00 TS 13.8906 -107.296 55 hurdat_epa main 638 635 O_________P___ hurdat_epa EP171984 13.9000 -107.300 TS 55 0 13.8623 -107.285 2 52 8 310
1984270N13262 1984 86 EP MM POLO 1984-09-29 09:00:00 TS 14.1320 -107.591 main 642 624 P_________P___ EP171984 14.1349 -107.593 TS 55 0 14.1232 -107.586 2 53 8 311
1984270N13262 1984 86 EP MM POLO 1984-09-29 12:00:00 TS 14.4000 -107.900 55 hurdat_epa main 630 619 O_________O___ hurdat_epa EP171984 14.4000 -107.900 TS 55 0 14.4000 -107.900 2 55 9 314
1984270N13262 1984 86 EP MM POLO 1984-09-29 15:00:00 TS 14.7349 -108.241 main 619 611 P_________P___ EP171984 14.7500 -108.242 TS 57 0 14.6896 -108.236 2 57 10 315
1984270N13262 1984 86 EP MM POLO 1984-09-29 18:00:00 TS 15.0731 -108.596 60 hurdat_epa main 611 608 O_________P___ hurdat_epa EP171984 15.1000 -108.600 TS 60 0 14.9924 -108.585 2 60 9 312
1984270N13262 1984 86 EP MM POLO 1984-09-29 21:00:00 TS 15.3485 -108.948 main 616 615 P_________P___ EP171984 15.3649 -108.950 TS 62 0 15.2990 -108.942 2 62 9 308
1984270N13262 1984 86 EP MM POLO 1984-09-30 00:00:00 TS 15.6000 -109.300 65 hurdat_epa main 623 623 O_________O___ hurdat_epa EP171984 15.6000 -109.300 HU 65 1 15.6000 -109.300 3 65 8 307
1984270N13262 1984 86 EP MM POLO 1984-09-30 03:00:00 TS 15.8503 -109.646 main 622 622 P_________P___ EP171984 15.8424 -109.650 HU 67 1 15.8737 -109.634 3 67 8 307
1984270N13262 1984 86 EP MM POLO 1984-09-30 06:00:00 TS 16.1105 -109.993 70 hurdat_epa main 639 632 O_________P___ hurdat_epa EP171984 16.1000 -110.000 HU 70 1 16.1420 -109.971 3 70 9 309
1984270N13262 1984 86 EP MM POLO 1984-09-30 09:00:00 TS 16.3979 -110.337 main 644 644 P_________P___ EP171984 16.3924 -110.343 HU 72 1 16.4143 -110.322 3 72 9 311
1984270N13262 1984 86 EP MM POLO 1984-09-30 12:00:00 TS 16.7000 -110.700 75 hurdat_epa main 661 661 O_________O___ hurdat_epa EP171984 16.7000 -110.700 HU 75 1 16.7000 -110.700 4 75 9 310
1984270N13262 1984 86 EP MM POLO 1984-09-30 15:00:00 TS 16.9959 -111.091 main 669 643 P_________P___ EP171984 16.9924 -111.078 HU 75 1 17.0067 -111.129 4 75 10 308
1984270N13262 1984 86 EP MM POLO 1984-09-30 18:00:00 TS 17.3069 -111.521 75 hurdat_epa main 645 624 O_________P___ hurdat_epa EP171984 17.3000 -111.500 HU 75 1 17.3277 -111.585 4 75 11 307
1984270N13262 1984 86 EP MM POLO 1984-09-30 21:00:00 TS 17.6525 -112.006 main 617 602 P_________P___ EP171984 17.6500 -111.992 HU 75 1 17.6598 -112.048 4 75 12 307
1984270N13262 1984 86 EP MM POLO 1984-10-01 00:00:00 TS 18.0000 -112.500 75 hurdat_epa main 606 596 O_________O___ hurdat_epa EP171984 18.0000 -112.500 HU 75 1 18.0000 -112.500 4 75 11 305
1984270N13262 1984 86 EP MM POLO 1984-10-01 03:00:00 TS 18.3051 -112.971 main 601 590 P_________P___ EP171984 18.2924 -112.973 HU 75 1 18.3430 -112.967 4 81 11 306
1984270N13262 1984 86 EP MM POLO 1984-10-01 06:00:00 TS 18.6232 -113.403 75 hurdat_epa main 596 582 O_________P___ hurdat_epa EP171984 18.6000 -113.400 HU 75 1 18.6928 -113.412 4 87 11 312
1984270N13262 1984 86 EP MM POLO 1984-10-01 09:00:00 TS 19.0115 -113.791 main 588 577 P_________P___ EP171984 18.9999 -113.787 HU 87 2 19.0462 -113.801 4 93 10 320
1984270N13262 1984 86 EP MM POLO 1984-10-01 12:00:00 TS 19.4000 -114.100 100 hurdat_epa main 577 570 O_________O___ hurdat_epa EP171984 19.4000 -114.100 HU 100 3 19.4000 -114.100 4 100 9 323
1984270N13262 1984 86 EP MM POLO 1984-10-01 15:00:00 TS 19.7123 -114.346 main 571 565 P_________P___ EP171984 19.6999 -114.360 HU 100 3 19.7494 -114.305 4 100 7 330
1984270N13262 1984 86 EP MM POLO 1984-10-01 18:00:00 TS 20.0248 -114.479 100 hurdat_epa main 567 535 O_________P___ hurdat_epa EP171984 20.0000 -114.500 HU 100 3 20.0993 -114.415 4 100 7 350
1984270N13262 1984 86 EP MM POLO 1984-10-01 21:00:00 TS 20.3955 -114.482 main 535 492 P_________P___ EP171984 20.3775 -114.495 HU 100 3 20.4496 -114.443 4 100 8 5
1984270N13262 1984 86 EP MM POLO 1984-10-02 00:00:00 TS 20.8000 -114.400 100 hurdat_epa main 492 449 O_________O___ hurdat_epa EP171984 20.8000 -114.400 HU 100 3 20.8000 -114.400 4 100 9 10
1984270N13262 1984 86 EP MM POLO 1984-10-02 03:00:00 TS 21.2458 -114.330 main 449 406 P_________P___ EP171984 21.2725 -114.322 HU 100 3 21.1660 -114.351 4 97 9 12
1984270N13262 1984 86 EP MM POLO 1984-10-02 06:00:00 TS 21.6574 -114.209 100 hurdat_epa main 397 373 O_________P___ hurdat_epa EP171984 21.7000 -114.200 HU 100 3 21.5295 -114.235 4 95 8 21
1984270N13262 1984 86 EP MM POLO 1984-10-02 09:00:00 TS 21.9601 -114.041 main 358 328 P_________P___ EP171984 21.9874 -114.037 HU 95 2 21.8783 -114.051 4 92 7 35
1984270N13262 1984 86 EP MM POLO 1984-10-02 12:00:00 TS 22.2000 -113.800 90 hurdat_epa main 328 291 O_________O___ hurdat_epa EP171984 22.2000 -113.800 HU 90 2 22.2000 -113.800 4 90 7 48
1984270N13262 1984 86 EP MM POLO 1984-10-02 15:00:00 TS 22.4109 -113.491 main 291 250 P_________P___ EP171984 22.3925 -113.480 HU 70 1 22.4662 -113.525 4 77 8 56
1984270N13262 1984 86 EP MM POLO 1984-10-02 18:00:00 TS 22.6267 -113.121 50 hurdat_epa main 250 205 O_________P___ hurdat_epa EP171984 22.6000 -113.100 TS 50 0 22.7067 -113.183 4 65 9 55
1984270N13262 1984 86 EP MM POLO 1984-10-02 21:00:00 TS 22.8996 -112.736 main 200 151 P_________P___ EP171984 22.8848 -112.722 TS 45 0 22.9440 -112.775 4 52 10 53
1984270N13262 1984 86 EP MM POLO 1984-10-03 00:00:00 TS 23.2000 -112.300 40 hurdat_epa main 151 105 O_________O___ hurdat_epa EP171984 23.2000 -112.300 TS 40 0 23.2000 -112.300 2 40 10 55
1984270N13262 1984 86 EP MM POLO 1984-10-03 03:00:00 TS 23.4920 -111.824 main 97 39 P_________P___ EP171984 23.4921 -111.845 TS 35 0 23.4914 -111.761 2 37 11 58
1984270N13262 1984 86 EP MM POLO 1984-10-03 06:00:00 TS 23.8031 -111.268 30 hurdat_epa main 39 0 O_________P___ hurdat_epa EP171984 23.8000 -111.300 TD 30 -1 23.8126 -111.171 2 35 13 60
1984270N13262 1984 86 EP MM POLO 1984-10-03 09:00:00 TS 24.1438 -110.613 main 0 0 P_________P___ EP171984 24.1409 -110.636 TD 30 -1 24.1524 -110.545 2 32 14 61
1984270N13262 1984 86 EP MM POLO 1984-10-03 12:00:00 TS 24.5000 -109.900 30 hurdat_epa main 35 O_________O___ hurdat_epa EP171984 24.5000 -109.900 TD 30 -1 24.5000 -109.900 1 30 15 61

About IBTrACS Database

This database is a web-friendly format of International Best Track Archive for Climate Stewardship (IBTrACS), a global best track data archive curated by NOAA dating back to 1842.

Updated: 2021-10-21